Time;durP1;ratioP1;P1;durP2;ratioP2;P2;SDS_P1;SDS_P2;PMS_P1;PMS_P2;Temp;Humidity;BMP_temperature;BMP_pressure;BME280_temperature;BME280_humidity;BME280_pressure;Samples;Min_cycle;Max_cycle;Signal;HPM_P1;HPM_P2
2021/09/23 00:01:39;;;;;;;19.60;10.65;;;;;;;;;;5019943;28;20046;-81
2021/09/23 00:04:20;;;;;;;17.60;11.25;;;;;;;;;;5019377;28;20054;-80
2021/09/23 00:06:47;;;;;;;18.00;11.15;;;;;;;;;;5020430;28;20416;-80
2021/09/23 00:09:14;;;;;;;16.58;10.57;;;;;;;;;;5019617;28;20057;-81
2021/09/23 00:11:41;;;;;;;20.23;10.70;;;;;;;;;;5018971;28;20551;-80
2021/09/23 00:14:08;;;;;;;16.63;10.00;;;;;;;;;;5024426;28;20054;-80
2021/09/23 00:16:36;;;;;;;17.45;10.93;;;;;;;;;;5032720;28;20054;-80
2021/09/23 00:19:04;;;;;;;18.73;11.18;;;;;;;;;;5027306;28;20122;-81
2021/09/23 00:21:31;;;;;;;20.05;11.55;;;;;;;;;;5022810;28;20053;-81
2021/09/23 00:23:57;;;;;;;18.05;10.88;;;;;;;;;;5022253;28;20046;-80
2021/09/23 00:26:24;;;;;;;18.55;10.05;;;;;;;;;;5021875;28;20042;-80
2021/09/23 00:28:51;;;;;;;19.25;9.43;;;;;;;;;;5021605;28;20045;-81
2021/09/23 00:31:18;;;;;;;17.05;10.50;;;;;;;;;;5021754;28;20061;-80
2021/09/23 00:33:46;;;;;;;19.10;10.50;;;;;;;;;;5020830;28;20061;-80
2021/09/23 00:36:13;;;;;;;20.13;10.07;;;;;;;;;;5021730;28;20050;-81
2021/09/23 00:38:40;;;;;;;15.75;9.95;;;;;;;;;;5021113;28;20057;-80
2021/09/23 00:41:07;;;;;;;16.60;10.38;;;;;;;;;;5020910;28;20394;-81
2021/09/23 00:43:34;;;;;;;18.95;10.68;;;;;;;;;;5020005;28;20054;-81
2021/09/23 00:46:01;;;;;;;19.02;10.85;;;;;;;;;;5020004;28;20065;-81
2021/09/23 00:48:28;;;;;;;17.77;10.57;;;;;;;;;;5020001;28;20046;-81
2021/09/23 00:50:57;;;;;;;17.40;9.35;;;;;;;;;;5027420;28;20054;-84
2021/09/23 00:53:24;;;;;;;17.60;10.65;;;;;;;;;;5022593;28;20177;-81
2021/09/23 00:55:51;;;;;;;17.42;9.90;;;;;;;;;;5025472;28;20049;-81
2021/09/23 00:58:18;;;;;;;18.75;9.65;;;;;;;;;;5025917;28;20046;-81
2021/09/23 01:00:45;;;;;;;16.77;10.13;;;;;;;;;;5025451;28;20057;-81
2021/09/23 01:03:13;;;;;;;19.33;11.15;;;;;;;;;;5024260;28;20053;-81
2021/09/23 01:05:40;;;;;;;17.67;10.18;;;;;;;;;;5024440;28;20045;-82
2021/09/23 01:08:08;;;;;;;18.00;10.10;;;;;;;;;;5024730;28;20042;-81
2021/09/23 01:10:35;;;;;;;18.38;9.88;;;;;;;;;;5024155;28;20485;-82
2021/09/23 01:13:03;;;;;;;17.48;9.30;;;;;;;;;;5024183;28;20065;-81
2021/09/23 01:15:30;;;;;;;17.42;9.85;;;;;;;;;;5023346;28;20505;-81
2021/09/23 01:17:57;;;;;;;16.55;10.90;;;;;;;;;;5023091;28;20053;-81
2021/09/23 01:20:24;;;;;;;18.52;9.95;;;;;;;;;;5026313;28;20065;-81
2021/09/23 01:22:53;;;;;;;17.63;9.90;;;;;;;;;;5026410;28;20050;-81
2021/09/23 01:25:22;;;;;;;18.23;10.20;;;;;;;;;;5029484;28;20054;-81
2021/09/23 01:27:49;;;;;;;15.82;9.77;;;;;;;;;;5028431;28;20225;-82
2021/09/23 01:30:17;;;;;;;15.38;9.63;;;;;;;;;;5024780;28;20053;-81
2021/09/23 01:32:44;;;;;;;17.60;10.07;;;;;;;;;;5024011;28;20102;-80
2021/09/23 01:35:11;;;;;;;16.35;9.65;;;;;;;;;;5023800;28;20408;-82
2021/09/23 01:37:39;;;;;;;16.40;9.07;;;;;;;;;;5023071;28;20497;-81
2021/09/23 01:40:09;;;;;;;16.08;9.75;;;;;;;;;;5023408;28;20069;-81
2021/09/23 01:42:36;;;;;;;18.42;9.82;;;;;;;;;;5022754;28;20431;-81
2021/09/23 01:45:05;;;;;;;15.60;9.15;;;;;;;;;;5023422;28;20289;-81
2021/09/23 01:47:32;;;;;;;15.88;8.98;;;;;;;;;;5022687;28;20056;-81
2021/09/23 01:49:59;;;;;;;16.63;9.02;;;;;;;;;;5023421;28;20069;-81
2021/09/23 01:52:26;;;;;;;21.02;9.50;;;;;;;;;;5040908;22;20046;-68
2021/09/23 01:54:53;;;;;;;16.58;9.40;;;;;;;;;;5013762;28;20136;-68
2021/09/23 01:57:21;;;;;;;17.00;8.88;;;;;;;;;;5013809;28;20409;-68
2021/09/23 01:59:48;;;;;;;14.38;8.38;;;;;;;;;;5014419;28;20517;-68
2021/09/23 02:02:15;;;;;;;15.00;9.60;;;;;;;;;;5013793;28;20050;-69
2021/09/23 02:04:42;;;;;;;18.90;10.98;;;;;;;;;;5013542;28;20052;-68
2021/09/23 02:07:09;;;;;;;15.98;9.20;;;;;;;;;;5013473;28;20089;-68
2021/09/23 02:09:36;;;;;;;16.17;9.50;;;;;;;;;;5013503;28;20046;-68
2021/09/23 02:12:04;;;;;;;13.85;8.55;;;;;;;;;;5013888;28;20570;-68
2021/09/23 02:14:32;;;;;;;16.02;8.70;;;;;;;;;;5013334;28;20058;-68
2021/09/23 02:16:59;;;;;;;14.50;8.63;;;;;;;;;;5013628;28;20065;-68
2021/09/23 02:19:26;;;;;;;16.67;9.27;;;;;;;;;;5013307;28;20132;-68
2021/09/23 02:21:55;;;;;;;14.75;8.90;;;;;;;;;;4996091;28;20053;-68
2021/09/23 02:24:22;;;;;;;13.77;8.60;;;;;;;;;;5013213;28;20049;-68
2021/09/23 02:26:49;;;;;;;18.48;8.82;;;;;;;;;;5013293;28;20064;-68
2021/09/23 02:29:16;;;;;;;13.48;7.93;;;;;;;;;;5013259;28;20115;-67
2021/09/23 02:31:45;;;;;;;13.20;8.02;;;;;;;;;;5013155;28;20085;-69
2021/09/23 02:34:12;;;;;;;15.05;9.25;;;;;;;;;;5012805;28;20133;-68
2021/09/23 02:36:39;;;;;;;15.27;8.32;;;;;;;;;;5013086;28;20475;-69
2021/09/23 02:39:06;;;;;;;14.20;9.02;;;;;;;;;;5012835;28;20049;-68
2021/09/23 02:41:33;;;;;;;18.13;9.25;;;;;;;;;;5013035;28;20418;-68
2021/09/23 02:44:01;;;;;;;17.83;9.10;;;;;;;;;;5013154;28;20501;-67
2021/09/23 02:46:28;;;;;;;16.70;9.77;;;;;;;;;;5012803;28;20422;-68
2021/09/23 02:48:56;;;;;;;15.23;8.60;;;;;;;;;;5012809;28;20050;-67
2021/09/23 02:51:23;;;;;;;17.20;9.15;;;;;;;;;;5012841;28;20049;-68
2021/09/23 02:53:50;;;;;;;18.17;8.77;;;;;;;;;;5012493;28;20064;-68
2021/09/23 02:56:18;;;;;;;16.60;9.02;;;;;;;;;;5012827;28;20133;-69
2021/09/23 02:58:47;;;;;;;14.88;9.10;;;;;;;;;;5012850;28;20057;-68
2021/09/23 03:01:14;;;;;;;15.70;8.07;;;;;;;;;;5013050;28;20045;-68
2021/09/23 03:03:41;;;;;;;13.85;7.70;;;;;;;;;;5012654;28;20050;-68
2021/09/23 03:06:10;;;;;;;15.57;8.38;;;;;;;;;;5012995;28;20472;-68
2021/09/23 03:08:37;;;;;;;14.45;8.15;;;;;;;;;;5012946;28;20056;-68
2021/09/23 03:11:04;;;;;;;15.32;8.90;;;;;;;;;;5012508;28;20129;-66
2021/09/23 03:13:31;;;;;;;14.27;8.52;;;;;;;;;;5012078;28;20060;-66
2021/09/23 03:15:59;;;;;;;14.35;9.13;;;;;;;;;;5012666;28;20485;-66
2021/09/23 03:18:26;;;;;;;15.70;8.98;;;;;;;;;;5011472;28;20060;-66
2021/09/23 03:20:53;;;;;;;14.18;9.63;;;;;;;;;;5012577;28;20104;-66
2021/09/23 03:23:21;;;;;;;16.23;8.32;;;;;;;;;;5012200;28;20418;-66
2021/09/23 03:25:50;;;;;;;16.35;8.30;;;;;;;;;;5012412;28;20046;-65
2021/09/23 03:28:18;;;;;;;14.50;8.32;;;;;;;;;;5012312;28;20168;-66
2021/09/23 03:30:46;;;;;;;14.07;8.75;;;;;;;;;;5012190;28;20053;-66
2021/09/23 03:33:13;;;;;;;15.13;8.90;;;;;;;;;;5012073;28;20069;-66
2021/09/23 03:35:40;;;;;;;15.60;8.05;;;;;;;;;;5012338;28;20049;-66
2021/09/23 03:38:08;;;;;;;14.73;8.55;;;;;;;;;;5012289;28;20054;-66
2021/09/23 03:40:37;;;;;;;19.65;9.45;;;;;;;;;;5011841;28;20141;-66
2021/09/23 03:43:04;;;;;;;16.45;9.15;;;;;;;;;;5012388;28;20430;-66
2021/09/23 03:45:31;;;;;;;16.88;9.68;;;;;;;;;;5012055;28;20058;-66
2021/09/23 03:47:58;;;;;;;15.52;8.77;;;;;;;;;;5012224;28;20557;-66
2021/09/23 03:50:25;;;;;;;13.65;8.73;;;;;;;;;;5012316;28;20175;-67
2021/09/23 03:52:51;;;;;;;17.67;8.88;;;;;;;;;;5012130;28;20060;-66
2021/09/23 03:55:18;;;;;;;15.55;8.95;;;;;;;;;;5011800;28;20198;-66
2021/09/23 03:57:47;;;;;;;15.48;10.30;;;;;;;;;;5012023;28;20483;-66
2021/09/23 04:00:16;;;;;;;17.77;9.18;;;;;;;;;;5012063;28;20046;-66
2021/09/23 04:02:43;;;;;;;17.70;9.10;;;;;;;;;;5012302;28;20400;-65
2021/09/23 04:05:10;;;;;;;18.73;10.30;;;;;;;;;;5011613;28;20472;-66
2021/09/23 04:07:37;;;;;;;16.42;8.93;;;;;;;;;;5011866;28;20052;-66
2021/09/23 04:10:05;;;;;;;15.70;9.07;;;;;;;;;;5011646;28;20045;-66
2021/09/23 04:12:32;;;;;;;19.23;9.82;;;;;;;;;;5012243;28;20515;-66
2021/09/23 04:15:00;;;;;;;15.45;8.88;;;;;;;;;;5011608;28;20133;-66
2021/09/23 04:17:27;;;;;;;15.85;8.95;;;;;;;;;;5011906;28;20505;-66
2021/09/23 04:19:54;;;;;;;14.48;8.48;;;;;;;;;;5011740;28;20052;-66
2021/09/23 04:22:21;;;;;;;16.77;8.90;;;;;;;;;;5011939;28;20450;-66
2021/09/23 04:24:48;;;;;;;15.90;9.70;;;;;;;;;;5011632;28;20054;-66
2021/09/23 04:27:15;;;;;;;17.88;9.38;;;;;;;;;;5012050;28;20137;-66
2021/09/23 04:29:43;;;;;;;19.60;9.50;;;;;;;;;;5013670;28;20041;-66
2021/09/23 04:32:12;;;;;;;17.85;10.05;;;;;;;;;;5016010;28;20140;-67
2021/09/23 04:34:39;;;;;;;14.57;8.43;;;;;;;;;;5015253;28;20057;-66
2021/09/23 04:37:06;;;;;;;17.40;10.15;;;;;;;;;;5015789;28;20050;-66
2021/09/23 04:39:33;;;;;;;17.30;9.35;;;;;;;;;;5015037;28;20518;-66
2021/09/23 04:42:00;;;;;;;17.77;9.18;;;;;;;;;;5015341;28;20053;-66
2021/09/23 04:44:28;;;;;;;17.42;8.98;;;;;;;;;;5014960;28;20050;-66
2021/09/23 04:46:55;;;;;;;17.77;9.50;;;;;;;;;;5015312;28;20148;-65
2021/09/23 04:49:23;;;;;;;18.08;9.40;;;;;;;;;;5014849;28;20089;-65
2021/09/23 04:51:50;;;;;;;19.77;10.00;;;;;;;;;;5015321;28;20046;-66
2021/09/23 04:54:17;;;;;;;18.80;10.13;;;;;;;;;;5015224;28;20060;-65
2021/09/23 04:56:44;;;;;;;16.02;8.57;;;;;;;;;;5015057;28;20133;-66
2021/09/23 04:59:11;;;;;;;17.05;9.20;;;;;;;;;;5014808;28;20060;-65
2021/09/23 05:01:38;;;;;;;16.48;9.13;;;;;;;;;;5014738;28;20046;-65
2021/09/23 05:04:05;;;;;;;16.85;8.88;;;;;;;;;;5014803;28;20045;-66
2021/09/23 05:06:34;;;;;;;14.88;8.70;;;;;;;;;;5014993;28;20137;-65
2021/09/23 05:09:01;;;;;;;16.05;9.25;;;;;;;;;;5016121;28;20080;-66
2021/09/23 05:11:28;;;;;;;15.40;8.25;;;;;;;;;;5014748;28;20058;-66
2021/09/23 05:13:55;;;;;;;16.70;10.00;;;;;;;;;;5014487;28;20046;-66
2021/09/23 05:16:23;;;;;;;17.63;9.15;;;;;;;;;;5014573;28;20052;-66
2021/09/23 05:18:50;;;;;;;14.63;8.32;;;;;;;;;;5014820;28;20056;-66
2021/09/23 05:21:17;;;;;;;15.73;9.25;;;;;;;;;;5014585;28;20487;-66
2021/09/23 05:23:45;;;;;;;17.17;9.20;;;;;;;;;;5014760;28;20076;-66
2021/09/23 05:26:12;;;;;;;14.50;8.52;;;;;;;;;;5014493;28;20089;-66
2021/09/23 05:28:39;;;;;;;15.13;8.27;;;;;;;;;;5014354;28;20060;-66
2021/09/23 05:31:07;;;;;;;15.63;7.95;;;;;;;;;;5014159;28;20048;-67
2021/09/23 05:33:34;;;;;;;18.92;9.02;;;;;;;;;;5014419;28;20463;-67
2021/09/23 05:36:01;;;;;;;15.05;8.45;;;;;;;;;;5014596;28;20499;-67
2021/09/23 05:38:28;;;;;;;16.15;9.43;;;;;;;;;;5014250;28;20142;-67
2021/09/23 05:41:01;;;;;;;16.33;8.82;;;;;;;;;;5013017;28;20056;-67
2021/09/23 05:43:28;;;;;;;16.52;9.05;;;;;;;;;;5014115;28;20159;-67
2021/09/23 05:45:55;;;;;;;15.13;8.23;;;;;;;;;;5014155;28;20140;-67
2021/09/23 05:48:22;;;;;;;17.35;8.57;;;;;;;;;;5014083;28;20116;-67
2021/09/23 05:50:49;;;;;;;16.30;9.27;;;;;;;;;;5014252;28;20046;-67
2021/09/23 05:53:16;;;;;;;16.98;8.70;;;;;;;;;;5013727;28;20046;-67
2021/09/23 05:55:43;;;;;;;16.48;8.63;;;;;;;;;;5013838;28;20045;-67
2021/09/23 05:58:12;;;;;;;17.10;8.93;;;;;;;;;;5013665;28;20100;-67
2021/09/23 06:00:39;;;;;;;17.00;8.68;;;;;;;;;;5013767;28;20153;-67
2021/09/23 06:03:06;;;;;;;16.42;9.00;;;;;;;;;;5013851;28;20519;-67
2021/09/23 06:05:33;;;;;;;15.48;8.00;;;;;;;;;;5013959;28;20430;-67
2021/09/23 06:08:01;;;;;;;17.50;9.05;;;;;;;;;;5013857;28;20487;-67
2021/09/23 06:10:28;;;;;;;15.73;9.40;;;;;;;;;;5013762;28;20418;-67
2021/09/23 06:12:55;;;;;;;13.38;7.60;;;;;;;;;;5013566;28;20473;-67
2021/09/23 06:15:24;;;;;;;14.77;7.55;;;;;;;;;;5013256;28;20141;-67
2021/09/23 06:17:51;;;;;;;14.15;7.38;;;;;;;;;;5013579;28;20414;-67
2021/09/23 06:20:20;;;;;;;14.20;7.85;;;;;;;;;;5013232;28;20517;-67
2021/09/23 06:22:47;;;;;;;17.38;8.48;;;;;;;;;;5013344;28;20205;-67
2021/09/23 06:25:14;;;;;;;18.50;8.30;;;;;;;;;;5012905;28;20049;-67
2021/09/23 06:27:41;;;;;;;18.15;9.32;;;;;;;;;;5013092;28;20056;-67
2021/09/23 06:30:09;;;;;;;18.25;8.88;;;;;;;;;;5013200;28;20052;-67
2021/09/23 06:32:38;;;;;;;15.52;8.25;;;;;;;;;;5013195;28;20046;-67
2021/09/23 06:35:05;;;;;;;14.35;7.93;;;;;;;;;;5013140;28;20430;-67
2021/09/23 06:37:32;;;;;;;16.33;8.52;;;;;;;;;;5013044;28;20046;-66
2021/09/23 06:39:59;;;;;;;14.23;8.88;;;;;;;;;;5012857;28;20080;-66
2021/09/23 06:42:26;;;;;;;12.30;7.25;;;;;;;;;;5013348;28;20076;-67
2021/09/23 06:44:53;;;;;;;14.02;7.70;;;;;;;;;;5012710;28;20091;-67
2021/09/23 06:47:21;;;;;;;16.70;9.73;;;;;;;;;;5013167;28;20050;-66
2021/09/23 06:49:51;;;;;;;21.85;12.20;;;;;;;;;;5012602;28;20052;-66
2021/09/23 06:52:18;;;;;;;20.40;10.68;;;;;;;;;;5012492;28;20085;-66
2021/09/23 06:54:45;;;;;;;16.85;9.32;;;;;;;;;;5013150;28;20054;-66
2021/09/23 06:57:12;;;;;;;16.55;9.48;;;;;;;;;;5012613;28;20053;-66
2021/09/23 06:59:39;;;;;;;17.02;8.85;;;;;;;;;;5012459;28;20419;-65
2021/09/23 07:02:06;;;;;;;17.17;9.30;;;;;;;;;;5012636;28;20046;-65
2021/09/23 07:04:33;;;;;;;17.17;8.70;;;;;;;;;;5012465;28;20054;-66
2021/09/23 07:07:02;;;;;;;15.05;7.43;;;;;;;;;;5014940;28;20057;-67
2021/09/23 07:09:29;;;;;;;26.10;14.95;;;;;;;;;;5030416;28;20063;-67
2021/09/23 07:11:56;;;;;;;21.33;12.48;;;;;;;;;;5030524;28;20404;-67
2021/09/23 07:14:23;;;;;;;15.05;8.52;;;;;;;;;;5030410;28;20049;-67
2021/09/23 07:16:50;;;;;;;13.40;7.97;;;;;;;;;;5030182;28;20049;-67
2021/09/23 07:19:17;;;;;;;15.65;8.00;;;;;;;;;;5030057;28;20136;-67
2021/09/23 07:21:44;;;;;;;13.35;7.80;;;;;;;;;;5030774;28;20414;-67
2021/09/23 07:24:13;;;;;;;15.65;8.00;;;;;;;;;;5029947;28;20309;-67
2021/09/23 07:26:40;;;;;;;16.42;8.82;;;;;;;;;;5029964;28;20045;-67
2021/09/23 07:29:07;;;;;;;15.60;8.45;;;;;;;;;;5030081;28;20500;-67
2021/09/23 07:31:35;;;;;;;12.63;7.70;;;;;;;;;;5030356;28;20136;-67
2021/09/23 07:34:02;;;;;;;15.70;8.02;;;;;;;;;;5030421;28;20502;-67
2021/09/23 07:36:29;;;;;;;14.43;7.70;;;;;;;;;;5029835;28;20053;-66
2021/09/23 07:38:58;;;;;;;16.23;8.90;;;;;;;;;;5029822;28;20049;-66
2021/09/23 07:41:26;;;;;;;14.35;8.23;;;;;;;;;;5029477;28;20057;-66
2021/09/23 07:43:54;;;;;;;13.52;7.32;;;;;;;;;;5029526;28;20521;-66
2021/09/23 07:46:21;;;;;;;14.15;7.97;;;;;;;;;;5029578;28;20053;-66
2021/09/23 07:48:53;;;;;;;15.18;7.65;;;;;;;;;;5029928;28;20117;-66
2021/09/23 07:51:20;;;;;;;13.20;8.65;;;;;;;;;;5030001;28;20053;-66
2021/09/23 07:53:47;;;;;;;13.57;7.68;;;;;;;;;;5030499;28;20059;-66
2021/09/23 07:56:14;;;;;;;14.45;9.07;;;;;;;;;;5029189;22;20634;-67
2021/09/23 07:58:43;;;;;;;17.98;8.15;;;;;;;;;;5010257;28;20490;-66
2021/09/23 08:01:10;;;;;;;13.68;7.68;;;;;;;;;;5026456;28;20068;-65
2021/09/23 08:03:37;;;;;;;14.68;8.00;;;;;;;;;;5029606;28;20041;-66
2021/09/23 08:06:17;;;;;;;11.45;7.13;;;;;;;;;;5034253;28;20049;-68
2021/09/23 08:08:44;;;;;;;14.07;8.10;;;;;;;;;;5034292;28;20128;-65
2021/09/23 08:11:11;;;;;;;14.77;7.80;;;;;;;;;;5033705;28;20053;-64
2021/09/23 08:13:46;;;;;;;15.95;8.35;;;;;;;;;;5033875;28;20482;-65
2021/09/23 08:16:37;;;;;;;14.55;7.75;;;;;;;;;;5034324;28;20045;-65
2021/09/23 08:19:04;;;;;;;12.48;7.47;;;;;;;;;;5033545;28;20142;-65
2021/09/23 08:21:31;;;;;;;13.40;7.65;;;;;;;;;;5033431;28;20056;-69
2021/09/23 08:23:58;;;;;;;13.05;7.30;;;;;;;;;;5033253;28;20059;-67
2021/09/23 08:26:27;;;;;;;13.00;7.28;;;;;;;;;;5033419;28;20049;-69
2021/09/23 08:29:13;;;;;;;12.52;7.78;;;;;;;;;;5033264;28;20060;-65
2021/09/23 08:31:40;;;;;;;16.67;7.57;;;;;;;;;;5033109;28;20119;-65
2021/09/23 08:34:07;;;;;;;13.25;7.68;;;;;;;;;;5032814;28;20045;-65
2021/09/23 08:36:34;;;;;;;13.65;7.75;;;;;;;;;;5032688;28;20053;-64
2021/09/23 08:39:01;;;;;;;13.13;6.65;;;;;;;;;;5032925;28;20057;-64
2021/09/23 08:41:29;;;;;;;13.90;6.53;;;;;;;;;;5032491;28;20057;-64
2021/09/23 08:43:56;;;;;;;13.23;7.60;;;;;;;;;;5033039;28;20099;-65
2021/09/23 08:46:25;;;;;;;12.95;7.32;;;;;;;;;;5031520;28;20137;-63
2021/09/23 08:48:53;;;;;;;12.25;6.75;;;;;;;;;;5033567;28;20130;-64
2021/09/23 08:51:20;;;;;;;13.40;7.32;;;;;;;;;;5032553;28;20041;-64
2021/09/23 08:53:47;;;;;;;12.75;7.43;;;;;;;;;;5032433;28;20517;-66
2021/09/23 08:56:15;;;;;;;14.20;6.80;;;;;;;;;;5032066;28;20045;-65
2021/09/23 08:58:45;;;;;;;10.43;6.22;;;;;;;;;;5032198;28;20063;-65
2021/09/23 09:01:16;;;;;;;11.15;6.63;;;;;;;;;;5032720;28;20577;-65
2021/09/23 09:03:46;;;;;;;10.82;7.10;;;;;;;;;;5031902;28;20325;-64
2021/09/23 09:06:15;;;;;;;12.23;6.25;;;;;;;;;;5032415;28;20470;-64
2021/09/23 09:08:43;;;;;;;14.10;8.20;;;;;;;;;;5032100;28;20068;-64
2021/09/23 09:11:12;;;;;;;10.98;6.57;;;;;;;;;;5031799;28;20093;-64
2021/09/23 09:13:40;;;;;;;14.68;7.22;;;;;;;;;;5031797;28;20095;-65
2021/09/23 09:16:09;;;;;;;14.23;7.07;;;;;;;;;;5031823;28;20072;-65
2021/09/23 09:18:37;;;;;;;9.55;5.70;;;;;;;;;;5031770;28;20187;-65
2021/09/23 09:21:09;;;;;;;10.95;6.47;;;;;;;;;;5031675;28;20046;-65
2021/09/23 09:23:41;;;;;;;16.63;10.35;;;;;;;;;;5031467;28;20057;-66
2021/09/23 09:26:09;;;;;;;15.43;9.40;;;;;;;;;;5032286;28;20480;-65
2021/09/23 09:28:46;;;;;;;12.20;6.68;;;;;;;;;;5031897;28;20140;-65
2021/09/23 09:31:14;;;;;;;10.43;6.20;;;;;;;;;;5031149;28;20049;-65
2021/09/23 09:33:43;;;;;;;10.88;6.18;;;;;;;;;;5031352;28;20051;-65
2021/09/23 09:36:32;;;;;;;11.00;6.35;;;;;;;;;;5031731;28;20124;-65
2021/09/23 09:39:01;;;;;;;11.30;6.55;;;;;;;;;;5031507;28;20041;-65
2021/09/23 09:41:31;;;;;;;11.85;7.80;;;;;;;;;;5015877;28;20041;-65
2021/09/23 09:44:01;;;;;;;9.05;6.05;;;;;;;;;;5031192;28;20056;-66
2021/09/23 09:46:30;;;;;;;9.30;5.22;;;;;;;;;;5031453;28;20133;-66
2021/09/23 09:48:58;;;;;;;8.80;5.22;;;;;;;;;;5031590;28;20124;-66
2021/09/23 09:51:38;;;;;;;9.00;5.30;;;;;;;;;;5030833;28;20056;-66
2021/09/23 09:54:07;;;;;;;8.55;5.55;;;;;;;;;;5031156;28;20045;-66
2021/09/23 09:56:34;;;;;;;8.93;5.03;;;;;;;;;;5018573;28;20052;-66
2021/09/23 09:59:13;;;;;;;9.48;5.47;;;;;;;;;;5027560;28;20561;-66
2021/09/23 10:01:41;;;;;;;9.48;5.10;;;;;;;;;;5016736;28;20449;-66
2021/09/23 10:04:09;;;;;;;8.55;4.70;;;;;;;;;;5030615;28;20057;-66
2021/09/23 10:06:39;;;;;;;10.57;5.95;;;;;;;;;;5030890;28;20063;-66
2021/09/23 10:09:07;;;;;;;9.57;5.67;;;;;;;;;;5030768;28;20524;-66
2021/09/23 10:11:36;;;;;;;23.55;12.63;;;;;;;;;;5030915;28;20038;-65
2021/09/23 10:14:04;;;;;;;38.03;17.03;;;;;;;;;;5030730;28;20120;-66
2021/09/23 10:16:32;;;;;;;13.95;6.80;;;;;;;;;;5030874;28;20779;-65
2021/09/23 10:19:00;;;;;;;17.02;9.15;;;;;;;;;;5030743;28;20269;-66
2021/09/23 10:21:28;;;;;;;21.08;12.68;;;;;;;;;;5030796;28;20467;-65
2021/09/23 10:23:57;;;;;;;10.30;5.70;;;;;;;;;;5030657;28;20045;-65
2021/09/23 10:26:27;;;;;;;10.65;5.65;;;;;;;;;;5030627;28;20049;-65
2021/09/23 10:28:57;;;;;;;10.40;5.40;;;;;;;;;;5030482;28;20060;-65
2021/09/23 10:31:31;;;;;;;9.30;4.93;;;;;;;;;;5030561;28;20048;-65
2021/09/23 10:33:59;;;;;;;12.10;5.47;;;;;;;;;;5030217;28;20045;-67
2021/09/23 10:36:26;;;;;;;8.93;5.40;;;;;;;;;;5030540;28;20049;-66
2021/09/23 10:38:56;;;;;;;10.38;5.28;;;;;;;;;;5030003;28;20132;-66
2021/09/23 10:41:26;;;;;;;221.20;103.70;;;;;;;;;;5029827;28;20038;-67
2021/09/23 10:43:54;;;;;;;76.83;35.40;;;;;;;;;;5030093;28;20049;-67
2021/09/23 10:46:22;;;;;;;215.40;71.75;;;;;;;;;;5030408;28;20041;-69
2021/09/23 10:48:49;;;;;;;211.20;66.95;;;;;;;;;;5030220;28;20092;-67
2021/09/23 10:51:17;;;;;;;145.32;48.05;;;;;;;;;;5029730;28;20298;-67
2021/09/23 10:53:50;;;;;;;92.63;32.78;;;;;;;;;;5029568;28;20045;-67
2021/09/23 10:56:21;;;;;;;36.53;16.27;;;;;;;;;;5019447;28;20065;-67
2021/09/23 10:58:48;;;;;;;108.85;42.13;;;;;;;;;;5024883;28;20521;-67
2021/09/23 11:01:24;;;;;;;98.15;32.78;;;;;;;;;;5013408;28;20053;-67
2021/09/23 11:03:53;;;;;;;64.18;22.77;;;;;;;;;;5029529;28;20108;-67
2021/09/23 11:06:20;;;;;;;10.98;6.13;;;;;;;;;;5018851;28;20076;-66
2021/09/23 11:08:48;;;;;;;9.27;5.28;;;;;;;;;;5024324;28;20128;-66
2021/09/23 11:11:17;;;;;;;40.88;14.98;;;;;;;;;;5013086;28;20045;-66
2021/09/23 11:13:45;;;;;;;38.65;14.73;;;;;;;;;;5023953;28;20053;-66
2021/09/23 11:16:13;;;;;;;42.38;16.80;;;;;;;;;;5019588;28;20049;-68
2021/09/23 11:18:41;;;;;;;41.45;17.27;;;;;;;;;;5016256;28;20061;-67
2021/09/23 11:21:09;;;;;;;15.23;7.72;;;;;;;;;;5010178;28;20141;-66
2021/09/23 11:23:37;;;;;;;25.25;9.80;;;;;;;;;;5024732;28;20077;-66
2021/09/23 11:26:04;;;;;;;30.48;12.27;;;;;;;;;;5018085;28;20124;-66
2021/09/23 11:28:32;;;;;;;26.08;9.15;;;;;;;;;;5017568;28;20042;-66
2021/09/23 11:31:00;;;;;;;15.48;6.72;;;;;;;;;;5025550;28;20134;-68
2021/09/23 11:33:29;;;;;;;9.73;5.25;;;;;;;;;;5013009;28;20042;-66
2021/09/23 11:35:57;;;;;;;17.63;7.75;;;;;;;;;;5029832;28;20057;-66
2021/09/23 11:38:25;;;;;;;27.63;10.82;;;;;;;;;;5029264;28;20081;-66
2021/09/23 11:40:57;;;;;;;14.43;6.97;;;;;;;;;;5029116;28;20052;-67
2021/09/23 11:43:29;;;;;;;26.95;10.65;;;;;;;;;;5029350;28;20090;-66
2021/09/23 11:45:58;;;;;;;9.43;5.13;;;;;;;;;;5029581;28;20046;-66
2021/09/23 11:48:30;;;;;;;15.40;7.20;;;;;;;;;;5029762;28;20496;-66
2021/09/23 11:50:59;;;;;;;14.45;5.90;;;;;;;;;;5029491;28;20535;-67
2021/09/23 11:53:28;;;;;;;14.82;7.30;;;;;;;;;;5029595;28;20100;-66
2021/09/23 11:56:01;;;;;;;22.47;9.60;;;;;;;;;;5022285;28;20050;-66
2021/09/23 11:58:30;;;;;;;13.80;6.45;;;;;;;;;;5022327;28;20050;-66
2021/09/23 12:00:57;;;;;;;15.35;6.82;;;;;;;;;;5013883;28;20495;-67
2021/09/23 12:03:26;;;;;;;11.15;5.78;;;;;;;;;;5009697;28;20049;-67
2021/09/23 12:05:56;;;;;;;11.93;5.43;;;;;;;;;;5016608;28;20053;-67
2021/09/23 12:08:25;;;;;;;11.40;5.75;;;;;;;;;;5029651;28;20474;-67
2021/09/23 12:10:55;;;;;;;7.47;4.75;;;;;;;;;;5029267;28;20108;-67
2021/09/23 12:13:31;;;;;;;13.07;6.35;;;;;;;;;;5029926;28;20050;-67
2021/09/23 12:16:00;;;;;;;8.45;4.70;;;;;;;;;;5022623;28;20092;-67
2021/09/23 12:18:29;;;;;;;8.68;4.95;;;;;;;;;;5023715;28;20447;-67
2021/09/23 12:20:58;;;;;;;11.52;5.70;;;;;;;;;;5015932;28;20049;-67
2021/09/23 12:23:31;;;;;;;8.93;4.70;;;;;;;;;;5028076;28;20046;-68
2021/09/23 12:26:13;;;;;;;7.55;4.45;;;;;;;;;;5019214;28;20052;-68
2021/09/23 12:28:42;;;;;;;12.05;5.15;;;;;;;;;;5031705;28;20045;-68
2021/09/23 12:31:11;;;;;;;11.63;5.82;;;;;;;;;;5030679;28;20481;-68
2021/09/23 12:33:57;;;;;;;9.57;4.90;;;;;;;;;;5027789;28;20049;-69
2021/09/23 12:36:30;;;;;;;8.10;4.43;;;;;;;;;;5031859;28;20160;-68
2021/09/23 12:39:19;;;;;;;7.88;4.22;;;;;;;;;;5031852;28;20125;-68
2021/09/23 12:42:03;;;;;;;6.32;3.78;;;;;;;;;;5017719;28;20045;-68
2021/09/23 12:44:31;;;;;;;8.52;4.15;;;;;;;;;;5030771;28;20055;-68
2021/09/23 12:47:10;;;;;;;9.05;4.85;;;;;;;;;;5031451;28;20075;-67
2021/09/23 12:49:41;;;;;;;8.23;4.25;;;;;;;;;;5016152;28;20047;-68
2021/09/23 12:52:16;;;;;;;;;;;;;;;;;;5035172;28;20065;-67
2021/09/23 12:54:54;;;;;;;8.85;4.72;;;;;;;;;;5035073;28;20358;-67
2021/09/23 12:57:24;;;;;;;9.13;4.40;;;;;;;;;;5018907;28;20060;-67
2021/09/23 12:59:52;;;;;;;8.83;4.67;;;;;;;;;;5028680;28;20054;-70
2021/09/23 13:02:21;;;;;;;8.60;4.63;;;;;;;;;;5024920;28;20068;-69
2021/09/23 13:05:05;;;;;;;8.73;5.03;;;;;;;;;;5019702;28;20070;-68
2021/09/23 13:07:40;;;;;;;8.05;4.50;;;;;;;;;;5018324;28;20045;-68
2021/09/23 13:10:09;;;;;;;8.23;4.20;;;;;;;;;;5033748;28;20076;-68
2021/09/23 13:12:38;;;;;;;7.60;4.47;;;;;;;;;;5033663;28;20052;-68
2021/09/23 13:15:30;;;;;;;8.60;4.00;;;;;;;;;;5032841;28;20277;-66
2021/09/23 13:17:59;;;;;;;6.72;4.00;;;;;;;;;;5032502;28;20582;-67
2021/09/23 13:20:28;;;;;;;7.32;3.83;;;;;;;;;;5032365;28;20046;-67
2021/09/23 13:22:56;;;;;;;8.67;4.37;;;;;;;;;;5032426;28;20050;-67
2021/09/23 13:25:26;;;;;;;6.22;3.55;;;;;;;;;;5032606;28;20053;-67
2021/09/23 13:27:57;;;;;;;7.03;3.90;;;;;;;;;;5032468;28;20410;-67
2021/09/23 13:30:24;;;;;;;8.13;4.40;;;;;;;;;;5032395;28;20470;-67
2021/09/23 13:32:51;;;;;;;10.07;4.43;;;;;;;;;;5032379;28;20121;-66
2021/09/23 13:35:19;;;;;;;9.95;5.22;;;;;;;;;;5031964;28;20079;-67
2021/09/23 13:37:47;;;;;;;8.82;4.50;;;;;;;;;;5032258;28;20465;-67
2021/09/23 13:40:15;;;;;;;8.35;4.20;;;;;;;;;;5031979;28;20049;-66
2021/09/23 13:42:42;;;;;;;8.70;4.75;;;;;;;;;;5032052;28;20373;-67
2021/09/23 13:45:10;;;;;;;11.05;4.97;;;;;;;;;;5031943;28;20478;-66
2021/09/23 13:47:37;;;;;;;7.60;4.18;;;;;;;;;;5031711;28;20124;-67
2021/09/23 13:50:05;;;;;;;7.95;4.40;;;;;;;;;;5031865;28;20049;-68
2021/09/23 13:52:35;;;;;;;8.32;4.53;;;;;;;;;;5032139;28;20052;-66
2021/09/23 13:55:05;;;;;;;7.20;4.40;;;;;;;;;;5044742;22;20076;-72
2021/09/23 13:57:33;;;;;;;7.60;4.68;;;;;;;;;;5015947;28;20461;-72
2021/09/23 14:00:01;;;;;;;9.35;3.97;;;;;;;;;;5023716;28;20057;-72
2021/09/23 14:02:28;;;;;;;7.50;4.43;;;;;;;;;;5011208;28;20553;-71
2021/09/23 14:04:55;;;;;;;7.68;3.72;;;;;;;;;;5012445;28;20081;-72
2021/09/23 14:07:23;;;;;;;8.18;4.25;;;;;;;;;;5012369;28;20054;-71
2021/09/23 14:09:50;;;;;;;8.15;4.20;;;;;;;;;;5012217;28;20092;-71
2021/09/23 14:12:19;;;;;;;6.72;3.38;;;;;;;;;;5012398;28;20472;-71
2021/09/23 14:14:46;;;;;;;7.72;4.00;;;;;;;;;;5012419;28;20057;-71
2021/09/23 14:17:13;;;;;;;6.90;3.47;;;;;;;;;;5012496;28;20097;-70
2021/09/23 14:19:41;;;;;;;8.75;4.88;;;;;;;;;;5012476;28;20054;-71
2021/09/23 14:22:09;;;;;;;7.40;4.00;;;;;;;;;;5012006;28;20522;-70
2021/09/23 14:24:37;;;;;;;8.70;4.78;;;;;;;;;;5011835;28;20053;-72
2021/09/23 14:27:07;;;;;;;6.50;3.60;;;;;;;;;;5011761;28;20479;-71
2021/09/23 14:29:39;;;;;;;6.88;4.07;;;;;;;;;;5011701;28;20133;-71
2021/09/23 14:32:07;;;;;;;8.70;4.75;;;;;;;;;;5012002;28;20518;-72
2021/09/23 14:34:34;;;;;;;7.95;4.07;;;;;;;;;;5011517;28;20463;-72
2021/09/23 14:37:01;;;;;;;8.48;4.18;;;;;;;;;;5011468;28;20057;-72
2021/09/23 14:39:28;;;;;;;6.90;4.07;;;;;;;;;;4995007;28;20081;-71